Wood Lake, Nebraska
Current Conditions -  °F | °C
As of 1:55 AM on Sunday 26 Oct 2014 (Local Time) from KANW Reporting Station
Clear Clear  
Wind Chill: 45°   Ceiling: Unl
Heat Index: 49°   Visibility: 10mi
Dew Point: 37°   Wind: 9mph
Humidity: 63%   Direction: 130°SE
Pressure: 29.9"   Gusts: NA
Location:  42.64°N, 100.24°W
Report Text: KANW 260655Z AUTO 13008KT 10SM CLR 09/03 A2990 RMK AO2 T00940026
Loading
Personal Weather Stations






























Interactive Weather Map
Tropical Storm Tracking
New forecast layout! Learn more

10-Day Weather Forecast

Advertisements
Track Severe Weather on mobile